RYR824W LFOB-EPMO
Flight info
| Callsign | RYR824W |
|---|---|
| Flight time | N/A |
| Altitude | 39000 |
| Route | RANUX1V/12 RANUX DCT VALEK DCT LIPNI DCT LIMGO DCT MASEK DCT ROBEL DCT POZUM DCT ADVAB P150 OBOKU DCT DOSIX |
| Aircraft | B38M/M-SADE3FGILRWY/SB1 |
Departure
| Time | N/A |
|---|---|
| Airport | Beauvais-Tillé airport (LFOB) |
Arrival
| Time | 2026-04-25 16:16 |
|---|---|
| Airport | Warsaw Modlin Airport (EPMO) |
| Time | Latitude | Longitude | Altitude | Speed | Heading |
|---|---|---|---|---|---|
| 2026-04-25 14:53 | 49.73892 | 6.57281 | 39099 ft | 455 kts | 59° |
| 2026-04-25 14:53 | 49.75387 | 6.61590 | 39096 ft | 455 kts | 59° |
| 2026-04-25 14:54 | 49.78381 | 6.70238 | 39103 ft | 455 kts | 59° |
| 2026-04-25 14:54 | 49.81353 | 6.78852 | 39098 ft | 456 kts | 59° |
| 2026-04-25 14:55 | 49.84333 | 6.87520 | 39097 ft | 455 kts | 59° |
| 2026-04-25 14:55 | 49.87293 | 6.96160 | 39115 ft | 455 kts | 59° |
| 2026-04-25 14:56 | 49.89763 | 7.03389 | 39113 ft | 455 kts | 59° |
| 2026-04-25 14:56 | 49.92713 | 7.12052 | 39125 ft | 455 kts | 59° |
| 2026-04-25 14:57 | 49.95666 | 7.20754 | 39128 ft | 455 kts | 59° |
| 2026-04-25 14:57 | 49.98614 | 7.29472 | 39134 ft | 456 kts | 59° |
| 2026-04-25 14:58 | 50.01566 | 7.38230 | 39131 ft | 456 kts | 59° |
| 2026-04-25 14:58 | 50.04491 | 7.46938 | 39129 ft | 456 kts | 59° |
| 2026-04-25 14:59 | 50.07423 | 7.55699 | 39119 ft | 456 kts | 59° |
| 2026-04-25 14:59 | 50.10353 | 7.64483 | 39123 ft | 456 kts | 59° |
| 2026-04-25 15:00 | 50.13283 | 7.73298 | 39121 ft | 457 kts | 59° |
| 2026-04-25 15:00 | 50.16180 | 7.82044 | 39150 ft | 457 kts | 59° |
| 2026-04-25 15:01 | 50.19093 | 7.90871 | 39111 ft | 456 kts | 59° |
| 2026-04-25 15:01 | 50.21995 | 7.99692 | 39107 ft | 457 kts | 59° |
| 2026-04-25 15:02 | 50.24898 | 8.08549 | 39110 ft | 457 kts | 59° |
| 2026-04-25 15:02 | 50.27770 | 8.17343 | 39115 ft | 457 kts | 59° |
| 2026-04-25 15:03 | 50.30645 | 8.26178 | 39114 ft | 457 kts | 59° |
| 2026-04-25 15:03 | 50.33525 | 8.35058 | 39102 ft | 456 kts | 59° |
| 2026-04-25 15:04 | 50.36399 | 8.43952 | 39109 ft | 457 kts | 59° |
| 2026-04-25 15:04 | 50.39247 | 8.52797 | 39093 ft | 457 kts | 59° |
| 2026-04-25 15:05 | 50.42106 | 8.61708 | 39087 ft | 457 kts | 59° |
| 2026-04-25 15:06 | 50.46372 | 8.75063 | 39082 ft | 457 kts | 59° |
| 2026-04-25 15:06 | 50.49218 | 8.84015 | 39087 ft | 457 kts | 59° |
| 2026-04-25 15:07 | 50.52057 | 8.92977 | 39090 ft | 457 kts | 59° |
| 2026-04-25 15:07 | 50.54873 | 9.01897 | 39094 ft | 459 kts | 59° |
| 2026-04-25 15:08 | 50.57716 | 9.10935 | 39090 ft | 459 kts | 59° |
| 2026-04-25 15:08 | 50.60529 | 9.19911 | 39086 ft | 459 kts | 59° |
| 2026-04-25 15:09 | 50.63353 | 9.28952 | 39079 ft | 459 kts | 59° |
| 2026-04-25 15:09 | 50.67563 | 9.42482 | 39083 ft | 459 kts | 59° |
| 2026-04-25 15:10 | 50.70372 | 9.51549 | 39086 ft | 459 kts | 59° |
| 2026-04-25 15:11 | 50.74071 | 9.65545 | 39092 ft | 463 kts | 68° |
| 2026-04-25 15:11 | 50.76060 | 9.75199 | 39082 ft | 464 kts | 68° |
| 2026-04-25 15:12 | 50.79022 | 9.89768 | 39095 ft | 464 kts | 68° |
| 2026-04-25 15:12 | 50.80324 | 9.96214 | 39088 ft | 464 kts | 68° |
| 2026-04-25 15:13 | 50.83910 | 10.14070 | 39074 ft | 465 kts | 68° |
| 2026-04-25 15:14 | 50.85856 | 10.23829 | 39078 ft | 465 kts | 68° |
| 2026-04-25 15:14 | 50.87782 | 10.33541 | 39089 ft | 465 kts | 69° |
| 2026-04-25 15:15 | 50.89741 | 10.43330 | 39075 ft | 465 kts | 67° |
| 2026-04-25 15:15 | 50.91841 | 10.53057 | 39083 ft | 466 kts | 67° |
| 2026-04-25 15:16 | 50.93908 | 10.62753 | 39069 ft | 466 kts | 67° |
| 2026-04-25 15:16 | 50.96994 | 10.77332 | 39076 ft | 466 kts | 67° |
| 2026-04-25 15:17 | 51.00076 | 10.91992 | 39092 ft | 466 kts | 67° |
| 2026-04-25 15:18 | 51.02110 | 11.01731 | 39079 ft | 467 kts | 68° |
| 2026-04-25 15:18 | 51.05172 | 11.16477 | 39078 ft | 469 kts | 68° |
| 2026-04-25 15:19 | 51.06871 | 11.24705 | 39071 ft | 471 kts | 68° |
| 2026-04-25 15:19 | 51.09235 | 11.36211 | 39053 ft | 471 kts | 68° |
| 2026-04-25 15:20 | 51.11262 | 11.46132 | 39051 ft | 471 kts | 68° |
| 2026-04-25 15:20 | 51.13284 | 11.56080 | 39047 ft | 472 kts | 68° |
| 2026-04-25 15:21 | 51.15284 | 11.65968 | 39035 ft | 472 kts | 68° |
| 2026-04-25 15:21 | 51.17293 | 11.75948 | 39037 ft | 472 kts | 68° |
| 2026-04-25 15:22 | 51.19283 | 11.85889 | 39036 ft | 472 kts | 68° |
| 2026-04-25 15:22 | 51.21274 | 11.95882 | 39042 ft | 473 kts | 68° |
| 2026-04-25 15:23 | 51.23270 | 12.05954 | 39034 ft | 476 kts | 68° |
| 2026-04-25 15:23 | 51.25245 | 12.15973 | 39025 ft | 476 kts | 68° |
| 2026-04-25 15:24 | 51.27227 | 12.26077 | 39018 ft | 476 kts | 69° |
| 2026-04-25 15:24 | 51.28868 | 12.34487 | 39016 ft | 476 kts | 69° |
| 2026-04-25 15:25 | 51.31168 | 12.46333 | 39012 ft | 477 kts | 69° |
| 2026-04-25 15:25 | 51.33113 | 12.56407 | 39020 ft | 478 kts | 69° |
| 2026-04-25 15:26 | 51.35077 | 12.66634 | 39016 ft | 479 kts | 69° |
| 2026-04-25 15:26 | 51.37018 | 12.76796 | 39019 ft | 480 kts | 69° |
| 2026-04-25 15:27 | 51.38953 | 12.86987 | 39002 ft | 480 kts | 69° |
| 2026-04-25 15:28 | 51.41855 | 13.02367 | 38999 ft | 480 kts | 69° |
| 2026-04-25 15:28 | 51.43782 | 13.12649 | 38997 ft | 482 kts | 69° |
| 2026-04-25 15:29 | 51.45689 | 13.22886 | 38993 ft | 482 kts | 69° |
| 2026-04-25 15:29 | 51.47602 | 13.33210 | 38988 ft | 482 kts | 69° |
| 2026-04-25 15:30 | 51.49191 | 13.41827 | 38990 ft | 482 kts | 70° |
| 2026-04-25 15:30 | 51.51395 | 13.53847 | 39000 ft | 483 kts | 70° |
| 2026-04-25 15:31 | 51.53282 | 13.64201 | 38998 ft | 484 kts | 70° |
| 2026-04-25 15:31 | 51.55169 | 13.74616 | 38984 ft | 484 kts | 70° |
| 2026-04-25 15:32 | 51.57044 | 13.85023 | 38977 ft | 484 kts | 70° |
| 2026-04-25 15:32 | 51.58905 | 13.95415 | 38976 ft | 485 kts | 70° |
| 2026-04-25 15:33 | 51.61679 | 14.11014 | 38977 ft | 485 kts | 70° |
| 2026-04-25 15:33 | 51.63525 | 14.21471 | 38969 ft | 485 kts | 70° |
| 2026-04-25 15:34 | 51.65351 | 14.31861 | 38991 ft | 485 kts | 70° |
| 2026-04-25 15:34 | 51.66577 | 14.38864 | 38976 ft | 485 kts | 70° |
| 2026-04-25 15:35 | 51.69907 | 14.58021 | 38961 ft | 485 kts | 70° |
| 2026-04-25 15:36 | 51.72897 | 14.73624 | 38975 ft | 483 kts | 66° |
| 2026-04-25 15:36 | 51.75074 | 14.83830 | 38945 ft | 484 kts | 67° |
| 2026-04-25 15:37 | 51.77245 | 14.94152 | 38950 ft | 484 kts | 67° |
| 2026-04-25 15:37 | 51.79391 | 15.04409 | 38944 ft | 484 kts | 67° |
| 2026-04-25 15:38 | 51.81539 | 15.14729 | 38937 ft | 483 kts | 67° |
| 2026-04-25 15:38 | 51.83676 | 15.25049 | 38936 ft | 483 kts | 67° |
| 2026-04-25 15:39 | 51.85810 | 15.35407 | 38930 ft | 486 kts | 68° |
| 2026-04-25 15:39 | 51.87926 | 15.45736 | 38918 ft | 486 kts | 68° |
| 2026-04-25 15:40 | 51.89346 | 15.52696 | 38919 ft | 486 kts | 68° |
| 2026-04-25 15:40 | 51.92150 | 15.66509 | 38909 ft | 486 kts | 68° |
| 2026-04-25 15:41 | 51.94249 | 15.76916 | 38911 ft | 486 kts | 68° |
| 2026-04-25 15:41 | 51.96332 | 15.87300 | 38910 ft | 486 kts | 68° |
| 2026-04-25 15:42 | 51.98066 | 15.95980 | 38899 ft | 487 kts | 68° |
| 2026-04-25 15:42 | 52.00146 | 16.06452 | 38895 ft | 487 kts | 68° |
| 2026-04-25 15:43 | 52.02223 | 16.16961 | 38898 ft | 487 kts | 68° |
| 2026-04-25 15:43 | 52.04269 | 16.27371 | 38890 ft | 487 kts | 68° |
| 2026-04-25 15:44 | 52.06324 | 16.37883 | 38889 ft | 487 kts | 68° |
| 2026-04-25 15:44 | 52.08354 | 16.48328 | 38891 ft | 489 kts | 68° |
| 2026-04-25 15:45 | 52.10400 | 16.58900 | 38887 ft | 490 kts | 68° |
| 2026-04-25 15:45 | 52.12098 | 16.67706 | 38881 ft | 490 kts | 68° |
| 2026-04-25 15:46 | 52.13811 | 16.80376 | 38890 ft | 494 kts | 77° |
| 2026-04-25 15:46 | 52.14927 | 16.91332 | 38873 ft | 495 kts | 77° |
| 2026-04-25 15:47 | 52.16028 | 17.02411 | 38855 ft | 495 kts | 77° |
| 2026-04-25 15:47 | 52.17121 | 17.13527 | 38863 ft | 495 kts | 78° |
| 2026-04-25 15:48 | 52.18193 | 17.24542 | 38858 ft | 495 kts | 78° |
| 2026-04-25 15:48 | 52.19265 | 17.35662 | 38860 ft | 495 kts | 78° |
| 2026-04-25 15:49 | 52.20323 | 17.46775 | 38858 ft | 495 kts | 78° |
| 2026-04-25 15:49 | 52.21352 | 17.57759 | 37916 ft | 489 kts | 78° |
| 2026-04-25 15:50 | 52.21866 | 17.63275 | 36599 ft | 494 kts | 78° |
| 2026-04-25 15:50 | 52.22381 | 17.68838 | 35278 ft | 499 kts | 78° |
| 2026-04-25 15:50 | 52.22899 | 17.74463 | 34028 ft | 503 kts | 78° |
| 2026-04-25 15:50 | 52.23417 | 17.80107 | 32830 ft | 502 kts | 78° |
| 2026-04-25 15:51 | 52.23928 | 17.85707 | 31881 ft | 495 kts | 78° |
| 2026-04-25 15:51 | 52.24261 | 17.89368 | 31339 ft | 488 kts | 78° |
| 2026-04-25 15:51 | 52.24916 | 17.96604 | 30019 ft | 484 kts | 78° |
| 2026-04-25 15:51 | 52.25377 | 18.02022 | 28811 ft | 482 kts | 79° |
| 2026-04-25 15:52 | 52.25823 | 18.07444 | 27659 ft | 480 kts | 79° |
| 2026-04-25 15:52 | 52.26268 | 18.12833 | 26631 ft | 476 kts | 79° |
| 2026-04-25 15:52 | 52.26704 | 18.18138 | 26028 ft | 469 kts | 79° |
| 2026-04-25 15:52 | 52.27135 | 18.23406 | 25486 ft | 466 kts | 79° |
| 2026-04-25 15:53 | 52.27562 | 18.28654 | 24877 ft | 465 kts | 79° |
| 2026-04-25 15:53 | 52.27986 | 18.33893 | 24276 ft | 465 kts | 79° |
| 2026-04-25 15:53 | 52.28401 | 18.39068 | 23681 ft | 465 kts | 79° |
| 2026-04-25 15:53 | 52.28821 | 18.44320 | 23034 ft | 465 kts | 79° |
| 2026-04-25 15:54 | 52.29238 | 18.49553 | 22380 ft | 464 kts | 79° |
| 2026-04-25 15:54 | 52.29645 | 18.54710 | 21776 ft | 462 kts | 79° |
| 2026-04-25 15:54 | 52.30053 | 18.59897 | 21196 ft | 459 kts | 79° |
| 2026-04-25 15:54 | 52.30456 | 18.65058 | 20620 ft | 457 kts | 79° |
| 2026-04-25 15:55 | 52.30857 | 18.70217 | 20055 ft | 455 kts | 79° |
| 2026-04-25 15:55 | 52.31253 | 18.75343 | 19491 ft | 453 kts | 79° |
| 2026-04-25 15:55 | 52.31645 | 18.80462 | 18934 ft | 452 kts | 79° |
| 2026-04-25 15:55 | 52.32030 | 18.85491 | 18390 ft | 451 kts | 79° |
| 2026-04-25 15:56 | 52.32415 | 18.90572 | 17787 ft | 450 kts | 79° |
| 2026-04-25 15:56 | 52.32799 | 18.95657 | 17206 ft | 448 kts | 79° |
| 2026-04-25 15:56 | 52.33176 | 19.00689 | 16665 ft | 442 kts | 79° |
| 2026-04-25 15:56 | 52.33544 | 19.05625 | 16145 ft | 433 kts | 79° |
| 2026-04-25 15:57 | 52.33903 | 19.10462 | 15659 ft | 422 kts | 79° |
| 2026-04-25 15:57 | 52.34253 | 19.15181 | 15181 ft | 415 kts | 79° |
| 2026-04-25 15:57 | 52.34598 | 19.19868 | 14815 ft | 411 kts | 79° |
| 2026-04-25 15:57 | 52.34872 | 19.24472 | 14616 ft | 403 kts | 82° |
| 2026-04-25 15:58 | 52.35087 | 19.29011 | 14433 ft | 399 kts | 82° |
| 2026-04-25 15:58 | 52.35311 | 19.33535 | 14215 ft | 399 kts | 82° |
| 2026-04-25 15:58 | 52.35532 | 19.37975 | 13950 ft | 394 kts | 82° |
| 2026-04-25 15:58 | 52.35752 | 19.42414 | 13678 ft | 388 kts | 82° |
| 2026-04-25 15:59 | 52.35969 | 19.46793 | 13386 ft | 382 kts | 82° |
| 2026-04-25 15:59 | 52.36178 | 19.51051 | 13113 ft | 376 kts | 82° |
| 2026-04-25 15:59 | 52.36385 | 19.55301 | 12908 ft | 369 kts | 82° |
| 2026-04-25 15:59 | 52.36585 | 19.59449 | 12645 ft | 363 kts | 82° |
| 2026-04-25 16:00 | 52.36782 | 19.63547 | 12371 ft | 358 kts | 82° |
| 2026-04-25 16:00 | 52.36848 | 19.64927 | 12287 ft | 356 kts | 82° |
| 2026-04-25 16:00 | 52.37162 | 19.71552 | 11894 ft | 346 kts | 82° |
| 2026-04-25 16:00 | 52.37346 | 19.75453 | 11666 ft | 341 kts | 82° |
| 2026-04-25 16:01 | 52.37593 | 19.79275 | 11419 ft | 334 kts | 78° |
| 2026-04-25 16:01 | 52.37903 | 19.82983 | 11166 ft | 331 kts | 78° |
| 2026-04-25 16:01 | 52.38203 | 19.86685 | 10940 ft | 326 kts | 78° |
| 2026-04-25 16:01 | 52.38493 | 19.90337 | 10727 ft | 321 kts | 78° |
| 2026-04-25 16:02 | 52.38775 | 19.93935 | 10517 ft | 316 kts | 78° |
| 2026-04-25 16:02 | 52.39051 | 19.97484 | 10306 ft | 311 kts | 78° |
| 2026-04-25 16:02 | 52.39321 | 20.00965 | 10092 ft | 306 kts | 78° |
| 2026-04-25 16:02 | 52.39583 | 20.04366 | 9891 ft | 301 kts | 78° |
| 2026-04-25 16:03 | 52.39842 | 20.07745 | 9686 ft | 296 kts | 78° |
| 2026-04-25 16:03 | 52.40096 | 20.11064 | 9478 ft | 293 kts | 78° |
| 2026-04-25 16:03 | 52.40349 | 20.14372 | 9275 ft | 292 kts | 78° |
| 2026-04-25 16:03 | 52.40708 | 20.17622 | 9047 ft | 285 kts | 62° |
| 2026-04-25 16:04 | 52.41760 | 20.20212 | 8827 ft | 265 kts | 32° |
| 2026-04-25 16:04 | 52.43240 | 20.21872 | 8685 ft | 255 kts | 22° |
| 2026-04-25 16:04 | 52.44738 | 20.23368 | 8562 ft | 255 kts | 21° |
| 2026-04-25 16:04 | 52.46260 | 20.24844 | 8399 ft | 254 kts | 21° |
| 2026-04-25 16:05 | 52.47785 | 20.26300 | 8231 ft | 252 kts | 21° |
| 2026-04-25 16:05 | 52.49248 | 20.27952 | 8065 ft | 262 kts | 39° |
| 2026-04-25 16:05 | 52.50567 | 20.33681 | 7674 ft | 280 kts | 77° |
| 2026-04-25 16:06 | 52.50864 | 20.36846 | 7492 ft | 280 kts | 77° |
| 2026-04-25 16:06 | 52.51165 | 20.40000 | 7306 ft | 279 kts | 77° |
| 2026-04-25 16:06 | 52.51467 | 20.43154 | 7116 ft | 279 kts | 77° |
| 2026-04-25 16:06 | 52.51766 | 20.46291 | 6926 ft | 278 kts | 77° |
| 2026-04-25 16:07 | 52.52066 | 20.49424 | 6747 ft | 277 kts | 77° |
| 2026-04-25 16:07 | 52.52162 | 20.50436 | 6685 ft | 276 kts | 77° |
| 2026-04-25 16:07 | 52.52652 | 20.55605 | 6376 ft | 274 kts | 77° |
| 2026-04-25 16:07 | 52.52945 | 20.58705 | 6182 ft | 273 kts | 77° |
| 2026-04-25 16:08 | 52.53234 | 20.61778 | 6061 ft | 271 kts | 77° |
| 2026-04-25 16:08 | 52.53520 | 20.64834 | 5963 ft | 270 kts | 77° |
| 2026-04-25 16:08 | 52.53804 | 20.67883 | 5769 ft | 269 kts | 78° |
| 2026-04-25 16:08 | 52.54083 | 20.70881 | 5593 ft | 269 kts | 78° |
| 2026-04-25 16:09 | 52.54364 | 20.73912 | 5398 ft | 268 kts | 78° |
| 2026-04-25 16:09 | 52.54644 | 20.76937 | 5215 ft | 267 kts | 78° |
| 2026-04-25 16:09 | 52.54923 | 20.79956 | 5031 ft | 265 kts | 78° |
| 2026-04-25 16:09 | 52.55197 | 20.82942 | 4874 ft | 263 kts | 79° |
| 2026-04-25 16:10 | 52.55468 | 20.85892 | 4681 ft | 259 kts | 79° |
| 2026-04-25 16:10 | 52.55731 | 20.88788 | 4488 ft | 254 kts | 80° |
| 2026-04-25 16:10 | 52.55597 | 20.91642 | 4265 ft | 251 kts | 112° |
| 2026-04-25 16:10 | 52.54649 | 20.93908 | 4054 ft | 240 kts | 145° |
| 2026-04-25 16:11 | 52.53217 | 20.95111 | 3893 ft | 227 kts | 172° |
| 2026-04-25 16:11 | 52.51663 | 20.95636 | 3803 ft | 228 kts | 176° |
| 2026-04-25 16:11 | 52.50123 | 20.95839 | 3673 ft | 216 kts | 198° |
| 2026-04-25 16:11 | 52.48846 | 20.94843 | 3589 ft | 195 kts | 229° |
| 2026-04-25 16:12 | 52.48121 | 20.93116 | 3450 ft | 181 kts | 253° |
| 2026-04-25 16:12 | 52.47800 | 20.91169 | 3283 ft | 174 kts | 259° |
| 2026-04-25 16:12 | 52.47542 | 20.89258 | 3170 ft | 171 kts | 260° |
| 2026-04-25 16:12 | 52.47462 | 20.88618 | 3129 ft | 170 kts | 260° |
| 2026-04-25 16:13 | 52.47099 | 20.85492 | 3011 ft | 163 kts | 262° |
| 2026-04-25 16:13 | 52.46904 | 20.83662 | 2726 ft | 162 kts | 263° |
| 2026-04-25 16:13 | 52.46718 | 20.81833 | 2424 ft | 163 kts | 263° |
| 2026-04-25 16:13 | 52.46535 | 20.80008 | 2139 ft | 161 kts | 263° |
| 2026-04-25 16:14 | 52.46362 | 20.78236 | 1856 ft | 156 kts | 262° |
| 2026-04-25 16:14 | 52.46200 | 20.76563 | 1662 ft | 144 kts | 262° |
| 2026-04-25 16:14 | 52.46047 | 20.74988 | 1461 ft | 133 kts | 262° |
| 2026-04-25 16:14 | 52.45908 | 20.73561 | 1254 ft | 124 kts | 262° |
| 2026-04-25 16:15 | 52.45777 | 20.72141 | 1053 ft | 128 kts | 263° |
| 2026-04-25 16:15 | 52.45625 | 20.70737 | 820 ft | 123 kts | 263° |
| 2026-04-25 16:15 | 52.45506 | 20.69342 | 659 ft | 124 kts | 262° |
| 2026-04-25 16:15 | 52.45385 | 20.68006 | 489 ft | 117 kts | 261° |
| 2026-04-25 16:16 | 52.45266 | 20.66720 | 355 ft | 111 kts | 261° |
| 2026-04-25 16:16 | 52.45164 | 20.65635 | 348 ft | 78 kts | 261° |
| 2026-04-25 16:16 | 52.45104 | 20.64992 | 339 ft | 42 kts | 261° |
| 2026-04-25 16:16 | 52.45064 | 20.64566 | 339 ft | 23 kts | 261° |
| 2026-04-25 16:17 | 52.45010 | 20.64391 | 344 ft | 13 kts | 189° |
| 2026-04-25 16:17 | 52.44912 | 20.64383 | 338 ft | 15 kts | 182° |
| 2026-04-25 16:17 | 52.44817 | 20.64376 | 340 ft | 12 kts | 182° |
| 2026-04-25 16:17 | 52.44737 | 20.64371 | 339 ft | 10 kts | 175° |
| 2026-04-25 16:18 | 52.44715 | 20.64464 | 340 ft | 11 kts | 81° |
| 2026-04-25 16:18 | 52.44719 | 20.64507 | 339 ft | 12 kts | 81° |
| 2026-04-25 16:18 | 52.44744 | 20.64756 | 338 ft | 14 kts | 80° |
| 2026-04-25 16:18 | 52.44759 | 20.64910 | 340 ft | 14 kts | 81° |
| 2026-04-25 16:19 | 52.44767 | 20.65032 | 339 ft | 5 kts | 111° |
| 2026-04-25 16:19 | 52.44752 | 20.65040 | 337 ft | 3 kts | 186° |
| 2026-04-25 16:19 | 52.44731 | 20.65025 | 338 ft | 2 kts | 205° |
| 2026-04-25 16:20 | 52.44722 | 20.65018 | 339 ft | 0 kts | 205° |